sensor_id;sensor_type;location;lat;lon;timestamp;pressure;altitude;pressure_sealevel;temperature
77412;BMP280;66484;49.968;19.140;2023-11-21T00:01:58;97071.28;;;9.39
77412;BMP280;66484;49.968;19.140;2023-11-21T00:04:24;97066.09;;;9.55
77412;BMP280;66484;49.968;19.140;2023-11-21T00:06:50;97076.00;;;9.49
77412;BMP280;66484;49.968;19.140;2023-11-21T00:09:19;97058.16;;;9.41
77412;BMP280;66484;49.968;19.140;2023-11-21T00:11:45;97064.16;;;9.56
77412;BMP280;66484;49.968;19.140;2023-11-21T00:14:11;97070.25;;;9.56
77412;BMP280;66484;49.968;19.140;2023-11-21T00:16:36;97064.69;;;9.59
77412;BMP280;66484;49.968;19.140;2023-11-21T00:19:02;97068.06;;;9.35
77412;BMP280;66484;49.968;19.140;2023-11-21T00:21:31;97080.78;;;9.40
77412;BMP280;66484;49.968;19.140;2023-11-21T00:23:57;97072.56;;;9.43
77412;BMP280;66484;49.968;19.140;2023-11-21T00:26:23;97075.00;;;9.47
77412;BMP280;66484;49.968;19.140;2023-11-21T00:28:50;97077.53;;;9.56
77412;BMP280;66484;49.968;19.140;2023-11-21T00:31:18;97082.41;;;9.57
77412;BMP280;66484;49.968;19.140;2023-11-21T00:33:49;97073.28;;;9.44
77412;BMP280;66484;49.968;19.140;2023-11-21T00:36:14;97077.50;;;9.50
77412;BMP280;66484;49.968;19.140;2023-11-21T00:38:39;97080.09;;;9.45
77412;BMP280;66484;49.968;19.140;2023-11-21T00:41:06;97084.03;;;9.49
77412;BMP280;66484;49.968;19.140;2023-11-21T00:43:32;97081.31;;;9.44
77412;BMP280;66484;49.968;19.140;2023-11-21T00:45:59;97080.00;;;9.59
77412;BMP280;66484;49.968;19.140;2023-11-21T00:48:24;97085.75;;;9.52
77412;BMP280;66484;49.968;19.140;2023-11-21T00:50:49;97090.59;;;9.48
77412;BMP280;66484;49.968;19.140;2023-11-21T00:53:15;97074.34;;;9.32
77412;BMP280;66484;49.968;19.140;2023-11-21T00:55:41;97081.13;;;9.53
77412;BMP280;66484;49.968;19.140;2023-11-21T00:58:06;97081.31;;;9.44
77412;BMP280;66484;49.968;19.140;2023-11-21T01:00:35;97080.25;;;9.36
77412;BMP280;66484;49.968;19.140;2023-11-21T01:03:01;97075.69;;;9.42
77412;BMP280;66484;49.968;19.140;2023-11-21T01:05:27;97076.31;;;9.31
77412;BMP280;66484;49.968;19.140;2023-11-21T01:07:57;97083.84;;;9.33
77412;BMP280;66484;49.968;19.140;2023-11-21T01:10:22;97090.41;;;9.52
77412;BMP280;66484;49.968;19.140;2023-11-21T01:12:51;97084.50;;;9.48
77412;BMP280;66484;49.968;19.140;2023-11-21T01:15:17;97084.59;;;9.33
77412;BMP280;66484;49.968;19.140;2023-11-21T01:17:43;97083.44;;;9.40
77412;BMP280;66484;49.968;19.140;2023-11-21T01:20:17;97085.88;;;9.38
77412;BMP280;66484;49.968;19.140;2023-11-21T01:22:43;97081.44;;;9.35
77412;BMP280;66484;49.968;19.140;2023-11-21T01:25:08;97079.59;;;9.21
77412;BMP280;66484;49.968;19.140;2023-11-21T01:27:34;97082.91;;;9.36
77412;BMP280;66484;49.968;19.140;2023-11-21T01:30:01;97090.63;;;9.28
77412;BMP280;66484;49.968;19.140;2023-11-21T01:32:27;97090.09;;;9.24
77412;BMP280;66484;49.968;19.140;2023-11-21T01:34:54;97086.28;;;9.31
77412;BMP280;66484;49.968;19.140;2023-11-21T01:37:20;97089.63;;;9.26
77412;BMP280;66484;49.968;19.140;2023-11-21T01:39:47;97095.16;;;9.22
77412;BMP280;66484;49.968;19.140;2023-11-21T01:42:13;97084.88;;;9.15
77412;BMP280;66484;49.968;19.140;2023-11-21T01:44:39;97095.38;;;9.19
77412;BMP280;66484;49.968;19.140;2023-11-21T01:47:09;97091.63;;;9.11
77412;BMP280;66484;49.968;19.140;2023-11-21T01:49:36;97088.00;;;9.14
77412;BMP280;66484;49.968;19.140;2023-11-21T01:52:06;97086.69;;;9.24
77412;BMP280;66484;49.968;19.140;2023-11-21T01:54:34;97089.97;;;9.13
77412;BMP280;66484;49.968;19.140;2023-11-21T01:57:03;97094.03;;;9.29
77412;BMP280;66484;49.968;19.140;2023-11-21T01:59:36;97091.44;;;9.14
77412;BMP280;66484;49.968;19.140;2023-11-21T02:02:08;97090.16;;;9.10
77412;BMP280;66484;49.968;19.140;2023-11-21T02:04:39;97098.16;;;9.10
77412;BMP280;66484;49.968;19.140;2023-11-21T02:07:05;97081.06;;;9.02
77412;BMP280;66484;49.968;19.140;2023-11-21T02:09:30;97079.50;;;9.15
77412;BMP280;66484;49.968;19.140;2023-11-21T02:11:57;97098.44;;;9.12
77412;BMP280;66484;49.968;19.140;2023-11-21T02:14:24;97092.81;;;9.10
77412;BMP280;66484;49.968;19.140;2023-11-21T02:16:52;97098.72;;;9.14
77412;BMP280;66484;49.968;19.140;2023-11-21T02:19:21;97096.44;;;9.07
77412;BMP280;66484;49.968;19.140;2023-11-21T02:21:59;97093.34;;;9.14
77412;BMP280;66484;49.968;19.140;2023-11-21T02:24:26;97097.78;;;9.17
77412;BMP280;66484;49.968;19.140;2023-11-21T02:26:52;97101.19;;;9.17
77412;BMP280;66484;49.968;19.140;2023-11-21T02:29:21;97101.66;;;9.16
77412;BMP280;66484;49.968;19.140;2023-11-21T02:31:54;97097.91;;;9.28
77412;BMP280;66484;49.968;19.140;2023-11-21T02:34:20;97093.50;;;9.25
77412;BMP280;66484;49.968;19.140;2023-11-21T02:36:46;97106.59;;;9.23
77412;BMP280;66484;49.968;19.140;2023-11-21T02:39:15;97106.47;;;9.12
77412;BMP280;66484;49.968;19.140;2023-11-21T02:41:42;97100.59;;;9.08
77412;BMP280;66484;49.968;19.140;2023-11-21T02:44:08;97106.06;;;9.19
77412;BMP280;66484;49.968;19.140;2023-11-21T02:46:34;97104.59;;;9.18
77412;BMP280;66484;49.968;19.140;2023-11-21T02:49:03;97121.19;;;9.22
77412;BMP280;66484;49.968;19.140;2023-11-21T02:51:30;97106.59;;;9.23
77412;BMP280;66484;49.968;19.140;2023-11-21T02:53:56;97107.06;;;9.21
77412;BMP280;66484;49.968;19.140;2023-11-21T02:56:26;97117.63;;;9.30
77412;BMP280;66484;49.968;19.140;2023-11-21T02:58:56;97110.22;;;9.20
77412;BMP280;66484;49.968;19.140;2023-11-21T03:01:21;97124.53;;;9.17
77412;BMP280;66484;49.968;19.140;2023-11-21T03:03:49;97120.63;;;9.18
77412;BMP280;66484;49.968;19.140;2023-11-21T03:06:17;97126.78;;;9.04
77412;BMP280;66484;49.968;19.140;2023-11-21T03:08:42;97129.19;;;9.02
77412;BMP280;66484;49.968;19.140;2023-11-21T03:11:08;97130.25;;;9.10
77412;BMP280;66484;49.968;19.140;2023-11-21T03:13:33;97124.63;;;9.28
77412;BMP280;66484;49.968;19.140;2023-11-21T03:15:59;97119.44;;;9.19
77412;BMP280;66484;49.968;19.140;2023-11-21T03:18:25;97112.91;;;9.20
77412;BMP280;66484;49.968;19.140;2023-11-21T03:20:52;97117.31;;;9.23
77412;BMP280;66484;49.968;19.140;2023-11-21T03:23:17;97104.53;;;9.32
77412;BMP280;66484;49.968;19.140;2023-11-21T03:25:43;97105.25;;;9.33
77412;BMP280;66484;49.968;19.140;2023-11-21T03:28:09;97110.84;;;9.35
77412;BMP280;66484;49.968;19.140;2023-11-21T03:30:34;97103.59;;;9.35
77412;BMP280;66484;49.968;19.140;2023-11-21T03:33:00;97106.31;;;9.41
77412;BMP280;66484;49.968;19.140;2023-11-21T03:35:26;97107.94;;;9.33
77412;BMP280;66484;49.968;19.140;2023-11-21T03:37:53;97115.16;;;9.27
77412;BMP280;66484;49.968;19.140;2023-11-21T03:40:18;97111.34;;;9.33
77412;BMP280;66484;49.968;19.140;2023-11-21T03:42:44;97118.09;;;9.49
77412;BMP280;66484;49.968;19.140;2023-11-21T03:45:09;97111.34;;;9.33
77412;BMP280;66484;49.968;19.140;2023-11-21T03:47:35;97119.81;;;9.32
77412;BMP280;66484;49.968;19.140;2023-11-21T03:50:00;97111.41;;;9.19
77412;BMP280;66484;49.968;19.140;2023-11-21T03:52:26;97111.13;;;9.37
77412;BMP280;66484;49.968;19.140;2023-11-21T03:54:54;97102.72;;;9.44
77412;BMP280;66484;49.968;19.140;2023-11-21T03:57:20;97108.28;;;9.20
77412;BMP280;66484;49.968;19.140;2023-11-21T03:59:47;97114.69;;;9.28
77412;BMP280;66484;49.968;19.140;2023-11-21T04:02:13;97101.72;;;9.02
77412;BMP280;66484;49.968;19.140;2023-11-21T04:04:38;97114.88;;;9.25
77412;BMP280;66484;49.968;19.140;2023-11-21T04:07:04;97114.69;;;9.28
77412;BMP280;66484;49.968;19.140;2023-11-21T04:09:30;97107.94;;;9.33
77412;BMP280;66484;49.968;19.140;2023-11-21T04:11:55;97101.38;;;9.34
77412;BMP280;66484;49.968;19.140;2023-11-21T04:14:21;97108.66;;;9.33
77412;BMP280;66484;49.968;19.140;2023-11-21T04:16:47;97099.44;;;9.34
77412;BMP280;66484;49.968;19.140;2023-11-21T04:19:13;97112.22;;;9.25
77412;BMP280;66484;49.968;19.140;2023-11-21T04:21:41;97103.66;;;9.21
77412;BMP280;66484;49.968;19.140;2023-11-21T04:24:17;97103.84;;;9.37
77412;BMP280;66484;49.968;19.140;2023-11-21T04:26:44;97105.97;;;9.33
77412;BMP280;66484;49.968;19.140;2023-11-21T04:29:09;97109.47;;;9.39
77412;BMP280;66484;49.968;19.140;2023-11-21T04:31:35;97104.00;;;9.28
77412;BMP280;66484;49.968;19.140;2023-11-21T04:34:00;97100.97;;;9.41
77412;BMP280;66484;49.968;19.140;2023-11-21T04:36:26;97110.00;;;9.43
77412;BMP280;66484;49.968;19.140;2023-11-21T04:38:52;97105.34;;;9.18
77412;BMP280;66484;49.968;19.140;2023-11-21T04:44:39;97103.59;;;9.35
77412;BMP280;66484;49.968;19.140;2023-11-21T04:50:32;97109.13;;;9.32
77412;BMP280;66484;49.968;19.140;2023-11-21T04:52:57;97121.97;;;9.28
77412;BMP280;66484;49.968;19.140;2023-11-21T04:55:23;97120.22;;;9.25
77412;BMP280;66484;49.968;19.140;2023-11-21T04:57:49;97116.75;;;9.19
77412;BMP280;66484;49.968;19.140;2023-11-21T05:00:15;97123.06;;;9.16
77412;BMP280;66484;49.968;19.140;2023-11-21T05:02:41;97121.56;;;9.15
77412;BMP280;66484;49.968;19.140;2023-11-21T05:05:08;97122.66;;;9.23
77412;BMP280;66484;49.968;19.140;2023-11-21T05:07:36;97121.25;;;9.27
77412;BMP280;66484;49.968;19.140;2023-11-21T05:13:23;97133.00;;;9.15
77412;BMP280;66484;49.968;19.140;2023-11-21T05:15:54;97128.66;;;9.18
77412;BMP280;66484;49.968;19.140;2023-11-21T05:18:19;97133.94;;;9.12
77412;BMP280;66484;49.968;19.140;2023-11-21T05:20:46;97142.38;;;9.25
77412;BMP280;66484;49.968;19.140;2023-11-21T05:23:12;97145.13;;;9.31
77412;BMP280;66484;49.968;19.140;2023-11-21T05:25:38;97154.34;;;9.30
77412;BMP280;66484;49.968;19.140;2023-11-21T05:28:03;97164.75;;;9.28
77412;BMP280;66484;49.968;19.140;2023-11-21T05:30:29;97159.28;;;9.17
77412;BMP280;66484;49.968;19.140;2023-11-21T05:32:54;97177.72;;;8.95
77412;BMP280;66484;49.968;19.140;2023-11-21T05:35:20;97184.19;;;8.89
77412;BMP280;66484;49.968;19.140;2023-11-21T05:37:46;97182.06;;;8.78
77412;BMP280;66484;49.968;19.140;2023-11-21T05:40:13;97183.66;;;8.70
77412;BMP280;66484;49.968;19.140;2023-11-21T05:42:39;97182.91;;;8.84
77412;BMP280;66484;49.968;19.140;2023-11-21T05:45:05;97185.41;;;8.73
77412;BMP280;66484;49.968;19.140;2023-11-21T05:47:42;97187.63;;;8.75
77412;BMP280;66484;49.968;19.140;2023-11-21T05:50:10;97189.81;;;8.76
77412;BMP280;66484;49.968;19.140;2023-11-21T05:52:38;97183.13;;;8.66
77412;BMP280;66484;49.968;19.140;2023-11-21T05:55:04;97184.75;;;8.78
77412;BMP280;66484;49.968;19.140;2023-11-21T05:57:34;97183.16;;;8.86
77412;BMP280;66484;49.968;19.140;2023-11-21T06:00:08;97181.97;;;8.87
77412;BMP280;66484;49.968;19.140;2023-11-21T06:03:00;97185.66;;;8.90
77412;BMP280;66484;49.968;19.140;2023-11-21T06:05:26;97195.44;;;8.78
77412;BMP280;66484;49.968;19.140;2023-11-21T06:07:55;97195.59;;;8.89
77412;BMP280;66484;49.968;19.140;2023-11-21T06:10:24;97185.97;;;8.77
77412;BMP280;66484;49.968;19.140;2023-11-21T06:12:49;97191.47;;;8.88
77412;BMP280;66484;49.968;19.140;2023-11-21T06:15:15;97199.34;;;8.97
77412;BMP280;66484;49.968;19.140;2023-11-21T06:17:42;97193.59;;;8.84
77412;BMP280;66484;49.968;19.140;2023-11-21T06:20:09;97203.44;;;8.78
77412;BMP280;66484;49.968;19.140;2023-11-21T06:22:40;97203.44;;;8.78
77412;BMP280;66484;49.968;19.140;2023-11-21T06:25:06;97198.94;;;8.84
77412;BMP280;66484;49.968;19.140;2023-11-21T06:27:54;97199.66;;;8.85
77412;BMP280;66484;49.968;19.140;2023-11-21T06:30:19;97199.56;;;8.94
77412;BMP280;66484;49.968;19.140;2023-11-21T06:32:45;97197.06;;;8.90
77412;BMP280;66484;49.968;19.140;2023-11-21T06:35:11;97198.56;;;8.77
77412;BMP280;66484;49.968;19.140;2023-11-21T06:37:37;97201.88;;;8.86
77412;BMP280;66484;49.968;19.140;2023-11-21T06:40:03;97201.88;;;8.86
77412;BMP280;66484;49.968;19.140;2023-11-21T06:42:29;97203.13;;;9.05
77412;BMP280;66484;49.968;19.140;2023-11-21T06:44:55;97208.25;;;9.08
77412;BMP280;66484;49.968;19.140;2023-11-21T06:47:24;97206.81;;;9.07
77412;BMP280;66484;49.968;19.140;2023-11-21T06:49:54;97220.50;;;9.15
77412;BMP280;66484;49.968;19.140;2023-11-21T06:52:20;97222.25;;;9.18
77412;BMP280;66484;49.968;19.140;2023-11-21T06:54:46;97220.41;;;9.24
77412;BMP280;66484;49.968;19.140;2023-11-21T06:57:15;97225.69;;;9.18
77412;BMP280;66484;49.968;19.140;2023-11-21T06:59:41;97232.94;;;9.18
77412;BMP280;66484;49.968;19.140;2023-11-21T07:02:07;97229.88;;;9.25
77412;BMP280;66484;49.968;19.140;2023-11-21T07:04:35;97221.69;;;9.28
77412;BMP280;66484;49.968;19.140;2023-11-21T07:07:02;97226.28;;;9.28
77412;BMP280;66484;49.968;19.140;2023-11-21T07:09:28;97234.72;;;9.41
77412;BMP280;66484;49.968;19.140;2023-11-21T07:11:53;97226.09;;;9.51
77412;BMP280;66484;49.968;19.140;2023-11-21T07:14:20;97231.66;;;9.67
77412;BMP280;66484;49.968;19.140;2023-11-21T07:16:46;97232.75;;;9.56
77412;BMP280;66484;49.968;19.140;2023-11-21T07:19:12;97234.72;;;9.60
77412;BMP280;66484;49.968;19.140;2023-11-21T07:21:39;97233.72;;;9.58
77412;BMP280;66484;49.968;19.140;2023-11-21T07:24:06;97232.47;;;9.54
77412;BMP280;66484;49.968;19.140;2023-11-21T07:26:32;97245.63;;;9.77
77412;BMP280;66484;49.968;19.140;2023-11-21T07:29:02;97238.88;;;9.61
77412;BMP280;66484;49.968;19.140;2023-11-21T07:31:28;97235.47;;;9.81
77412;BMP280;66484;49.968;19.140;2023-11-21T07:33:54;97246.66;;;9.99
77412;BMP280;66484;49.968;19.140;2023-11-21T07:36:23;97243.16;;;9.93
77412;BMP280;66484;49.968;19.140;2023-11-21T07:38:49;97243.16;;;9.93
77412;BMP280;66484;49.968;19.140;2023-11-21T07:41:15;97251.66;;;9.92
77412;BMP280;66484;49.968;19.140;2023-11-21T07:43:41;97253.88;;;9.93
77412;BMP280;66484;49.968;19.140;2023-11-21T07:46:08;97261.38;;;10.09
77412;BMP280;66484;49.968;19.140;2023-11-21T07:48:34;97257.06;;;10.17
77412;BMP280;66484;49.968;19.140;2023-11-21T07:51:01;97258.00;;;10.34
77412;BMP280;66484;49.968;19.140;2023-11-21T07:53:29;97255.41;;;10.45
77412;BMP280;66484;49.968;19.140;2023-11-21T07:56:14;97249.66;;;10.52
77412;BMP280;66484;49.968;19.140;2023-11-21T07:58:39;97263.81;;;10.32
77412;BMP280;66484;49.968;19.140;2023-11-21T08:01:05;97263.03;;;10.26
77412;BMP280;66484;49.968;19.140;2023-11-21T08:03:31;97266.84;;;10.20
77412;BMP280;66484;49.968;19.140;2023-11-21T08:05:59;97261.81;;;10.27
77412;BMP280;66484;49.968;19.140;2023-11-21T08:08:25;97269.38;;;10.29
77412;BMP280;66484;49.968;19.140;2023-11-21T08:10:51;97264.50;;;10.27
77412;BMP280;66484;49.968;19.140;2023-11-21T08:13:23;97266.13;;;10.19
77412;BMP280;66484;49.968;19.140;2023-11-21T08:15:49;97272.47;;;10.22
77412;BMP280;66484;49.968;19.140;2023-11-21T08:18:15;97267.38;;;10.24
77412;BMP280;66484;49.968;19.140;2023-11-21T08:20:41;97274.13;;;10.39
77412;BMP280;66484;49.968;19.140;2023-11-21T08:23:07;97264.66;;;10.44
77412;BMP280;66484;49.968;19.140;2023-11-21T08:25:32;97262.28;;;10.51
77412;BMP280;66484;49.968;19.140;2023-11-21T08:28:00;97267.28;;;10.63
77412;BMP280;66484;49.968;19.140;2023-11-21T08:30:25;97266.84;;;10.70
77412;BMP280;66484;49.968;19.140;2023-11-21T08:32:53;97274.53;;;10.58
77412;BMP280;66484;49.968;19.140;2023-11-21T08:35:18;97270.72;;;10.69
77412;BMP280;66484;49.968;19.140;2023-11-21T08:37:44;97270.78;;;10.75
77412;BMP280;66484;49.968;19.140;2023-11-21T08:40:12;97273.97;;;11.04
77412;BMP280;66484;49.968;19.140;2023-11-21T08:42:42;97282.25;;;11.06
77412;BMP280;66484;49.968;19.140;2023-11-21T08:45:08;97286.84;;;11.00
77412;BMP280;66484;49.968;19.140;2023-11-21T08:47:34;97286.56;;;10.98
77412;BMP280;66484;49.968;19.140;2023-11-21T08:50:02;97281.97;;;10.99
77412;BMP280;66484;49.968;19.140;2023-11-21T08:52:27;97285.84;;;10.98
77412;BMP280;66484;49.968;19.140;2023-11-21T08:54:53;97283.72;;;11.07
77412;BMP280;66484;49.968;19.140;2023-11-21T08:57:22;97290.19;;;11.20
77412;BMP280;66484;49.968;19.140;2023-11-21T08:59:48;97288.31;;;11.32
77412;BMP280;66484;49.968;19.140;2023-11-21T09:02:13;97289.19;;;11.18
77412;BMP280;66484;49.968;19.140;2023-11-21T09:04:38;97276.00;;;11.20
77412;BMP280;66484;49.968;19.140;2023-11-21T09:07:04;97288.91;;;11.16
77412;BMP280;66484;49.968;19.140;2023-11-21T09:09:30;97291.59;;;11.16
77412;BMP280;66484;49.968;19.140;2023-11-21T09:11:56;97286.31;;;10.96
77412;BMP280;66484;49.968;19.140;2023-11-21T09:14:21;97286.41;;;10.76
77412;BMP280;66484;49.968;19.140;2023-11-21T09:16:46;97276.72;;;10.84
77412;BMP280;66484;49.968;19.140;2023-11-21T09:19:12;97284.50;;;10.82
77412;BMP280;66484;49.968;19.140;2023-11-21T09:21:39;97284.13;;;10.95
77412;BMP280;66484;49.968;19.140;2023-11-21T09:24:05;97282.16;;;10.95
77412;BMP280;66484;49.968;19.140;2023-11-21T09:26:34;97285.41;;;11.05
77412;BMP280;66484;49.968;19.140;2023-11-21T09:28:59;97272.78;;;11.11
77412;BMP280;66484;49.968;19.140;2023-11-21T09:31:25;97276.28;;;10.91
77412;BMP280;66484;49.968;19.140;2023-11-21T09:33:52;97284.69;;;11.04
77412;BMP280;66484;49.968;19.140;2023-11-21T09:36:18;97280.72;;;10.94
77412;BMP280;66484;49.968;19.140;2023-11-21T09:38:43;97277.78;;;11.28
77412;BMP280;66484;49.968;19.140;2023-11-21T09:42:03;97284.84;;;11.26
77412;BMP280;66484;49.968;19.140;2023-11-21T09:44:03;97282.97;;;11.37
77412;BMP280;66484;49.968;19.140;2023-11-21T09:46:33;97287.31;;;11.66
77412;BMP280;66484;49.968;19.140;2023-11-21T09:49:00;97294.97;;;11.83
77412;BMP280;66484;49.968;19.140;2023-11-21T09:51:27;97283.41;;;11.67
77412;BMP280;66484;49.968;19.140;2023-11-21T09:53:57;97277.56;;;11.68
77412;BMP280;66484;49.968;19.140;2023-11-21T09:56:24;97281.31;;;11.45
77412;BMP280;66484;49.968;19.140;2023-11-21T09:58:53;97283.53;;;11.47
77412;BMP280;66484;49.968;19.140;2023-11-21T10:01:19;97280.13;;;11.16
77412;BMP280;66484;49.968;19.140;2023-11-21T10:03:46;97281.66;;;11.22
77412;BMP280;66484;49.968;19.140;2023-11-21T10:06:13;97290.97;;;10.96
77412;BMP280;66484;49.968;19.140;2023-11-21T10:08:42;97283.81;;;11.18
77412;BMP280;66484;49.968;19.140;2023-11-21T10:11:08;97284.91;;;11.31
77412;BMP280;66484;49.968;19.140;2023-11-21T10:13:37;97283.97;;;11.40
77412;BMP280;66484;49.968;19.140;2023-11-21T10:16:04;97285.19;;;11.39
77412;BMP280;66484;49.968;19.140;2023-11-21T10:18:32;97288.72;;;11.56
77412;BMP280;66484;49.968;19.140;2023-11-21T10:20:59;97289.53;;;11.36
77412;BMP280;66484;49.968;19.140;2023-11-21T10:23:25;97284.94;;;11.37
77412;BMP280;66484;49.968;19.140;2023-11-21T10:25:52;97286.47;;;11.13
77412;BMP280;66484;49.968;19.140;2023-11-21T10:28:17;97292.13;;;11.20
77412;BMP280;66484;49.968;19.140;2023-11-21T10:30:43;97284.06;;;11.51
77412;BMP280;66484;49.968;19.140;2023-11-21T10:33:09;97284.91;;;11.73
77412;BMP280;66484;49.968;19.140;2023-11-21T10:35:46;97281.59;;;11.94
77412;BMP280;66484;49.968;19.140;2023-11-21T10:38:20;97272.75;;;11.83
77412;BMP280;66484;49.968;19.140;2023-11-21T10:40:48;97277.38;;;11.77
77412;BMP280;66484;49.968;19.140;2023-11-21T10:43:14;97278.34;;;11.79
77412;BMP280;66484;49.968;19.140;2023-11-21T10:45:41;97280.31;;;11.84
77412;BMP280;66484;49.968;19.140;2023-11-21T10:48:09;97283.25;;;11.81
77412;BMP280;66484;49.968;19.140;2023-11-21T10:50:36;97272.47;;;11.75
77412;BMP280;66484;49.968;19.140;2023-11-21T10:53:05;97270.72;;;11.67
77412;BMP280;66484;49.968;19.140;2023-11-21T10:55:32;97271.97;;;11.72
77412;BMP280;66484;49.968;19.140;2023-11-21T10:58:00;97279.50;;;11.68
77412;BMP280;66484;49.968;19.140;2023-11-21T11:00:28;97274.94;;;11.84
77412;BMP280;66484;49.968;19.140;2023-11-21T11:02:55;97264.03;;;11.99
77412;BMP280;66484;49.968;19.140;2023-11-21T11:05:23;97266.91;;;11.90
77412;BMP280;66484;49.968;19.140;2023-11-21T11:07:57;97271.41;;;11.57
77412;BMP280;66484;49.968;19.140;2023-11-21T11:10:25;97271.44;;;11.26
77412;BMP280;66484;49.968;19.140;2023-11-21T11:12:56;97272.94;;;11.32
77412;BMP280;66484;49.968;19.140;2023-11-21T11:15:23;97274.97;;;11.12
77412;BMP280;66484;49.968;19.140;2023-11-21T11:17:49;97271.28;;;11.04
77412;BMP280;66484;49.968;19.140;2023-11-21T11:20:16;97270.91;;;10.91
77412;BMP280;66484;49.968;19.140;2023-11-21T11:22:50;97269.28;;;10.68
77412;BMP280;66484;49.968;19.140;2023-11-21T11:25:41;97266.31;;;10.66
77412;BMP280;66484;49.968;19.140;2023-11-21T11:28:14;97273.94;;;10.73
77412;BMP280;66484;49.968;19.140;2023-11-21T11:33:59;97271.22;;;10.68
77412;BMP280;66484;49.968;19.140;2023-11-21T11:36:40;97279.91;;;10.58
77412;BMP280;66484;49.968;19.140;2023-11-21T11:39:37;97277.91;;;10.53
77412;BMP280;66484;49.968;19.140;2023-11-21T11:42:06;97280.84;;;10.55
77412;BMP280;66484;49.968;19.140;2023-11-21T11:50:00;97284.63;;;10.43
77412;BMP280;66484;49.968;19.140;2023-11-21T11:52:41;97282.91;;;10.40
77412;BMP280;66484;49.968;19.140;2023-11-21T11:55:10;97286.53;;;10.37
77412;BMP280;66484;49.968;19.140;2023-11-21T11:57:36;97283.84;;;10.37
77412;BMP280;66484;49.968;19.140;2023-11-21T12:00:09;97282.41;;;10.66
77412;BMP280;66484;49.968;19.140;2023-11-21T12:02:42;97287.88;;;10.77
77412;BMP280;66484;49.968;19.140;2023-11-21T12:05:16;97286.81;;;10.95
77412;BMP280;66484;49.968;19.140;2023-11-21T12:07:48;97284.78;;;11.15
77412;BMP280;66484;49.968;19.140;2023-11-21T12:10:18;97276.81;;;11.26
77412;BMP280;66484;49.968;19.140;2023-11-21T12:15:18;97281.41;;;11.25
77412;BMP280;66484;49.968;19.140;2023-11-21T12:17:45;97282.59;;;10.88
77412;BMP280;66484;49.968;19.140;2023-11-21T12:20:15;97284.75;;;10.84
77412;BMP280;66484;49.968;19.140;2023-11-21T12:22:50;97290.81;;;10.79
77412;BMP280;66484;49.968;19.140;2023-11-21T12:27:50;97292.00;;;10.48
77412;BMP280;66484;49.968;19.140;2023-11-21T12:30:17;97289.50;;;9.99
77412;BMP280;66484;49.968;19.140;2023-11-21T12:32:44;97290.03;;;10.03
77412;BMP280;66484;49.968;19.140;2023-11-21T12:35:12;97288.41;;;9.71
77412;BMP280;66484;49.968;19.140;2023-11-21T12:37:41;97296.28;;;9.60
77412;BMP280;66484;49.968;19.140;2023-11-21T12:40:10;97285.94;;;9.68
77412;BMP280;66484;49.968;19.140;2023-11-21T12:42:41;97287.56;;;9.46
77412;BMP280;66484;49.968;19.140;2023-11-21T12:45:23;97298.25;;;9.46
77412;BMP280;66484;49.968;19.140;2023-11-21T12:47:54;97297.34;;;9.49
77412;BMP280;66484;49.968;19.140;2023-11-21T12:50:25;97300.41;;;9.42
77412;BMP280;66484;49.968;19.140;2023-11-21T12:52:55;97306.97;;;9.60
77412;BMP280;66484;49.968;19.140;2023-11-21T12:55:43;97306.13;;;9.69
77412;BMP280;66484;49.968;19.140;2023-11-21T12:58:16;97303.28;;;9.58
77412;BMP280;66484;49.968;19.140;2023-11-21T13:00:44;97305.53;;;9.59
77412;BMP280;66484;49.968;19.140;2023-11-21T13:03:12;97302.06;;;9.73
77412;BMP280;66484;49.968;19.140;2023-11-21T13:05:42;97311.22;;;9.67
77412;BMP280;66484;49.968;19.140;2023-11-21T13:08:10;97306.81;;;9.64
77412;BMP280;66484;49.968;19.140;2023-11-21T13:10:40;97306.66;;;9.53
77412;BMP280;66484;49.968;19.140;2023-11-21T13:13:09;97315.16;;;9.52
77412;BMP280;66484;49.968;19.140;2023-11-21T13:15:39;97313.28;;;9.57
77412;BMP280;66484;49.968;19.140;2023-11-21T13:18:06;97328.38;;;9.60
77412;BMP280;66484;49.968;19.140;2023-11-21T13:20:32;97327.28;;;9.67
77412;BMP280;66484;49.968;19.140;2023-11-21T13:22:58;97316.69;;;9.58
77412;BMP280;66484;49.968;19.140;2023-11-21T13:25:30;97321.28;;;9.38
77412;BMP280;66484;49.968;19.140;2023-11-21T13:27:59;97325.09;;;9.51
77412;BMP280;66484;49.968;19.140;2023-11-21T13:30:26;97331.13;;;9.32
77412;BMP280;66484;49.968;19.140;2023-11-21T13:32:55;97317.50;;;9.30
77412;BMP280;66484;49.968;19.140;2023-11-21T13:35:31;97326.94;;;9.11
77412;BMP280;66484;49.968;19.140;2023-11-21T13:38:14;97327.84;;;9.08
77412;BMP280;66484;49.968;19.140;2023-11-21T13:40:41;97321.50;;;8.91
77412;BMP280;66484;49.968;19.140;2023-11-21T13:43:15;97313.19;;;8.89
77412;BMP280;66484;49.968;19.140;2023-11-21T13:45:41;97328.13;;;9.10
77412;BMP280;66484;49.968;19.140;2023-11-21T13:48:08;97328.69;;;9.00
77412;BMP280;66484;49.968;19.140;2023-11-21T13:50:48;97333.28;;;9.13
77412;BMP280;66484;49.968;19.140;2023-11-21T13:53:21;97333.13;;;9.17
77412;BMP280;66484;49.968;19.140;2023-11-21T13:56:08;97323.31;;;9.28
77412;BMP280;66484;49.968;19.140;2023-11-21T13:58:35;97323.09;;;9.32
77412;BMP280;66484;49.968;19.140;2023-11-21T14:01:15;97329.38;;;9.29
77412;BMP280;66484;49.968;19.140;2023-11-21T14:04:03;97332.53;;;9.42
77412;BMP280;66484;49.968;19.140;2023-11-21T14:06:45;97336.06;;;9.04
77412;BMP280;66484;49.968;19.140;2023-11-21T14:09:19;97342.03;;;9.14
77412;BMP280;66484;49.968;19.140;2023-11-21T14:11:57;97337.16;;;9.12
77412;BMP280;66484;49.968;19.140;2023-11-21T14:14:27;97344.00;;;8.99
77412;BMP280;66484;49.968;19.140;2023-11-21T14:16:53;97340.22;;;8.91
77412;BMP280;66484;49.968;19.140;2023-11-21T14:19:19;97343.63;;;9.06
77412;BMP280;66484;49.968;19.140;2023-11-21T14:21:45;97346.13;;;8.95
77412;BMP280;66484;49.968;19.140;2023-11-21T14:24:11;97344.34;;;8.92
77412;BMP280;66484;49.968;19.140;2023-11-21T14:26:45;97348.78;;;8.81
77412;BMP280;66484;49.968;19.140;2023-11-21T14:29:12;97339.38;;;8.85
77412;BMP280;66484;49.968;19.140;2023-11-21T14:31:40;97348.03;;;8.95
77412;BMP280;66484;49.968;19.140;2023-11-21T14:34:07;97350.25;;;8.82